メインページ
METAR-TAF:

METAR-TAF

空港 :

ダカール, セネガル

レオポール・セダール・サンゴール国際空港

緯度: 14-44N, 経度: 017-30W, 海抜: 27m

現時点の気象観測

当レポートは40分前の14:00(UTC)に作成
北/北西の風 8kt、西/北西から北/北東の間で変化する
気温 29°C
湿度 70%
気圧 1013 hPa
視程10km以上
高度1300ftの千切れ雲あり

METAR: GOOY 261400Z 34008KT 300V020 9999 BKN013 29/23 Q1013 NOSIG

時間: 14:40 (14:40 UTC)

予報

当レポートは3時間10分前の11:30(UTC)に作成
予報は26日の 12時(UTC)から 27日の 18時(UTC)まで有効
北西の風 10kt
視程10km以上
高度1000ftの雲は散在している

TAF: GOOY 261130Z 2612/2718 32010KT 9999 SCT010

4,000以上の空港の気象観測と天気予報(METAR報とTAF報)

利用可能な観測所は地図上に黄色い丸と赤い丸で示す。

丸の上にカーソルを重ねると観測所名を参照できる。

次にクリックすると気象観測と天気予報を参照できる。

マップの切り替え:黒色「×」印の緑ボタンをクリックして拡大、「-」印の緑ボタンをクリックして縮小、緑色の三角印をクリックして隣りの地図に切り替え


METAR-TAF: